sensor_id;sensor_type;location;lat;lon;timestamp;P1;durP1;ratioP1;P2;durP2;ratioP2
28068;SDS011;15382;47.578;8.086;2022-08-19T00:04:50;30.83;;;17.70;;
28068;SDS011;15382;47.578;8.086;2022-08-19T00:14:52;29.80;;;18.63;;
28068;SDS011;15382;47.578;8.086;2022-08-19T00:34:54;28.87;;;17.30;;
28068;SDS011;15382;47.578;8.086;2022-08-19T00:44:55;24.23;;;14.83;;
28068;SDS011;15382;47.578;8.086;2022-08-19T00:54:57;26.83;;;13.80;;
28068;SDS011;15382;47.578;8.086;2022-08-19T01:04:59;21.83;;;14.25;;
28068;SDS011;15382;47.578;8.086;2022-08-19T01:15:03;20.95;;;13.85;;
28068;SDS011;15382;47.578;8.086;2022-08-19T01:25:06;19.05;;;11.60;;
28068;SDS011;15382;47.578;8.086;2022-08-19T01:35:07;13.55;;;10.10;;
28068;SDS011;15382;47.578;8.086;2022-08-19T01:45:09;16.90;;;11.27;;
28068;SDS011;15382;47.578;8.086;2022-08-19T01:55:11;18.00;;;10.53;;
28068;SDS011;15382;47.578;8.086;2022-08-19T02:05:17;18.42;;;12.13;;
28068;SDS011;15382;47.578;8.086;2022-08-19T02:15:19;17.37;;;12.17;;
28068;SDS011;15382;47.578;8.086;2022-08-19T02:25:20;23.63;;;14.70;;
28068;SDS011;15382;47.578;8.086;2022-08-19T02:35:21;19.00;;;13.30;;
28068;SDS011;15382;47.578;8.086;2022-08-19T02:45:22;20.63;;;12.63;;
28068;SDS011;15382;47.578;8.086;2022-08-19T02:55:23;17.10;;;10.93;;
28068;SDS011;15382;47.578;8.086;2022-08-19T03:05:24;20.83;;;12.53;;
28068;SDS011;15382;47.578;8.086;2022-08-19T03:15:25;16.47;;;11.27;;
28068;SDS011;15382;47.578;8.086;2022-08-19T03:25:26;17.70;;;11.43;;
28068;SDS011;15382;47.578;8.086;2022-08-19T03:35:27;17.47;;;11.50;;
28068;SDS011;15382;47.578;8.086;2022-08-19T03:45:28;21.33;;;12.97;;
28068;SDS011;15382;47.578;8.086;2022-08-19T03:55:29;22.23;;;14.43;;
28068;SDS011;15382;47.578;8.086;2022-08-19T04:05:30;23.87;;;13.87;;
28068;SDS011;15382;47.578;8.086;2022-08-19T04:15:31;24.60;;;15.43;;
28068;SDS011;15382;47.578;8.086;2022-08-19T04:25:39;26.17;;;16.13;;
28068;SDS011;15382;47.578;8.086;2022-08-19T04:35:43;25.88;;;16.33;;
28068;SDS011;15382;47.578;8.086;2022-08-19T04:45:46;30.10;;;17.58;;
28068;SDS011;15382;47.578;8.086;2022-08-19T04:55:47;28.73;;;17.57;;
28068;SDS011;15382;47.578;8.086;2022-08-19T05:05:49;29.45;;;15.95;;
28068;SDS011;15382;47.578;8.086;2022-08-19T05:15:54;25.40;;;15.90;;
28068;SDS011;15382;47.578;8.086;2022-08-19T05:25:56;28.38;;;17.25;;
28068;SDS011;15382;47.578;8.086;2022-08-19T05:35:57;25.00;;;15.50;;
28068;SDS011;15382;47.578;8.086;2022-08-19T05:45:58;22.70;;;13.97;;
28068;SDS011;15382;47.578;8.086;2022-08-19T05:56:03;29.20;;;14.60;;
28068;SDS011;15382;47.578;8.086;2022-08-19T06:06:09;21.15;;;13.77;;
28068;SDS011;15382;47.578;8.086;2022-08-19T06:16:11;22.52;;;14.00;;
28068;SDS011;15382;47.578;8.086;2022-08-19T06:26:12;22.53;;;14.27;;
28068;SDS011;15382;47.578;8.086;2022-08-19T06:36:18;25.60;;;13.35;;
28068;SDS011;15382;47.578;8.086;2022-08-19T06:46:24;24.48;;;14.38;;
28068;SDS011;15382;47.578;8.086;2022-08-19T06:56:27;22.38;;;13.25;;
28068;SDS011;15382;47.578;8.086;2022-08-19T07:06:32;18.42;;;12.50;;
28068;SDS011;15382;47.578;8.086;2022-08-19T07:16:32;22.47;;;12.87;;
28068;SDS011;15382;47.578;8.086;2022-08-19T07:36:39;26.55;;;14.88;;
28068;SDS011;15382;47.578;8.086;2022-08-19T07:46:43;24.45;;;15.20;;
28068;SDS011;15382;47.578;8.086;2022-08-19T07:56:45;24.27;;;14.88;;
28068;SDS011;15382;47.578;8.086;2022-08-19T08:06:46;27.27;;;16.60;;
28068;SDS011;15382;47.578;8.086;2022-08-19T08:17:06;28.95;;;18.77;;
28068;SDS011;15382;47.578;8.086;2022-08-19T08:27:07;31.63;;;20.27;;
28068;SDS011;15382;47.578;8.086;2022-08-19T08:37:07;30.73;;;18.67;;
28068;SDS011;15382;47.578;8.086;2022-08-19T08:47:09;35.30;;;20.40;;
28068;SDS011;15382;47.578;8.086;2022-08-19T08:57:19;33.45;;;20.40;;
28068;SDS011;15382;47.578;8.086;2022-08-19T09:17:48;31.65;;;19.67;;
28068;SDS011;15382;47.578;8.086;2022-08-19T09:27:49;34.23;;;21.13;;
28068;SDS011;15382;47.578;8.086;2022-08-19T09:37:53;36.10;;;21.45;;
28068;SDS011;15382;47.578;8.086;2022-08-19T09:57:56;39.72;;;23.35;;
28068;SDS011;15382;47.578;8.086;2022-08-19T10:07:57;37.10;;;22.00;;
28068;SDS011;15382;47.578;8.086;2022-08-19T10:18:00;36.42;;;22.55;;
28068;SDS011;15382;47.578;8.086;2022-08-19T10:28:01;33.10;;;21.10;;
28068;SDS011;15382;47.578;8.086;2022-08-19T10:38:03;33.55;;;20.05;;
28068;SDS011;15382;47.578;8.086;2022-08-19T10:48:03;29.83;;;19.83;;
28068;SDS011;15382;47.578;8.086;2022-08-19T10:58:09;32.47;;;20.83;;
28068;SDS011;15382;47.578;8.086;2022-08-19T11:08:12;29.38;;;19.40;;
28068;SDS011;15382;47.578;8.086;2022-08-19T11:18:13;28.57;;;19.03;;
28068;SDS011;15382;47.578;8.086;2022-08-19T11:28:13;33.20;;;18.73;;
28068;SDS011;15382;47.578;8.086;2022-08-19T11:38:14;27.43;;;15.90;;
28068;SDS011;15382;47.578;8.086;2022-08-19T11:48:15;31.77;;;18.43;;
28068;SDS011;15382;47.578;8.086;2022-08-19T11:58:17;28.60;;;19.10;;
28068;SDS011;15382;47.578;8.086;2022-08-19T12:08:18;32.17;;;20.65;;
28068;SDS011;15382;47.578;8.086;2022-08-19T12:18:19;30.92;;;21.00;;
28068;SDS011;15382;47.578;8.086;2022-08-19T12:28:21;37.65;;;17.95;;
28068;SDS011;15382;47.578;8.086;2022-08-19T12:38:22;27.77;;;18.95;;
28068;SDS011;15382;47.578;8.086;2022-08-19T12:58:25;29.40;;;19.40;;
28068;SDS011;15382;47.578;8.086;2022-08-19T13:08:27;29.40;;;19.27;;
28068;SDS011;15382;47.578;8.086;2022-08-19T13:18:27;26.43;;;16.33;;
28068;SDS011;15382;47.578;8.086;2022-08-19T13:28:29;26.90;;;17.33;;
28068;SDS011;15382;47.578;8.086;2022-08-19T13:38:48;23.85;;;16.52;;
28068;SDS011;15382;47.578;8.086;2022-08-19T13:48:49;26.30;;;18.20;;
28068;SDS011;15382;47.578;8.086;2022-08-19T13:58:49;30.20;;;18.80;;
28068;SDS011;15382;47.578;8.086;2022-08-19T14:08:51;26.73;;;17.70;;
28068;SDS011;15382;47.578;8.086;2022-08-19T14:18:52;27.05;;;17.27;;
28068;SDS011;15382;47.578;8.086;2022-08-19T14:28:53;28.20;;;15.10;;
28068;SDS011;15382;47.578;8.086;2022-08-19T14:38:57;17.88;;;12.68;;
28068;SDS011;15382;47.578;8.086;2022-08-19T14:49:00;23.45;;;14.60;;
28068;SDS011;15382;47.578;8.086;2022-08-19T14:59:00;18.37;;;12.73;;
28068;SDS011;15382;47.578;8.086;2022-08-19T15:09:02;14.97;;;10.83;;
28068;SDS011;15382;47.578;8.086;2022-08-19T15:19:03;15.55;;;11.73;;
28068;SDS011;15382;47.578;8.086;2022-08-19T15:29:04;14.43;;;10.67;;
28068;SDS011;15382;47.578;8.086;2022-08-19T15:39:05;14.00;;;10.37;;
28068;SDS011;15382;47.578;8.086;2022-08-19T15:49:09;15.63;;;11.40;;
28068;SDS011;15382;47.578;8.086;2022-08-19T15:59:11;15.80;;;11.52;;
28068;SDS011;15382;47.578;8.086;2022-08-19T16:09:41;16.35;;;12.38;;
28068;SDS011;15382;47.578;8.086;2022-08-19T16:19:42;18.13;;;13.27;;
28068;SDS011;15382;47.578;8.086;2022-08-19T16:29:43;17.63;;;13.83;;
28068;SDS011;15382;47.578;8.086;2022-08-19T16:39:44;19.77;;;14.57;;
28068;SDS011;15382;47.578;8.086;2022-08-19T16:49:45;26.57;;;14.87;;
28068;SDS011;15382;47.578;8.086;2022-08-19T16:59:45;19.20;;;14.57;;
28068;SDS011;15382;47.578;8.086;2022-08-19T17:09:46;23.13;;;14.80;;
28068;SDS011;15382;47.578;8.086;2022-08-19T17:19:47;21.07;;;15.27;;
28068;SDS011;15382;47.578;8.086;2022-08-19T17:29:48;21.10;;;14.87;;
28068;SDS011;15382;47.578;8.086;2022-08-19T17:39:49;24.50;;;15.57;;
28068;SDS011;15382;47.578;8.086;2022-08-19T17:49:49;20.20;;;14.10;;
28068;SDS011;15382;47.578;8.086;2022-08-19T17:59:51;21.83;;;15.23;;
28068;SDS011;15382;47.578;8.086;2022-08-19T18:09:52;20.70;;;13.60;;
28068;SDS011;15382;47.578;8.086;2022-08-19T18:19:53;20.67;;;14.90;;
28068;SDS011;15382;47.578;8.086;2022-08-19T18:29:54;20.13;;;14.40;;
28068;SDS011;15382;47.578;8.086;2022-08-19T18:39:58;20.73;;;13.65;;
28068;SDS011;15382;47.578;8.086;2022-08-19T18:50:17;16.77;;;13.38;;
28068;SDS011;15382;47.578;8.086;2022-08-19T19:00:18;16.90;;;13.03;;
28068;SDS011;15382;47.578;8.086;2022-08-19T19:10:19;17.95;;;13.57;;
28068;SDS011;15382;47.578;8.086;2022-08-19T19:20:20;15.67;;;12.20;;
28068;SDS011;15382;47.578;8.086;2022-08-19T19:30:21;24.43;;;13.27;;
28068;SDS011;15382;47.578;8.086;2022-08-19T19:40:25;19.23;;;13.48;;
28068;SDS011;15382;47.578;8.086;2022-08-19T20:00:29;26.30;;;16.10;;
28068;SDS011;15382;47.578;8.086;2022-08-19T20:10:30;24.93;;;14.63;;
28068;SDS011;15382;47.578;8.086;2022-08-19T20:30:32;21.48;;;15.63;;
28068;SDS011;15382;47.578;8.086;2022-08-19T20:40:33;26.53;;;16.50;;
28068;SDS011;15382;47.578;8.086;2022-08-19T20:50:35;24.73;;;15.88;;
28068;SDS011;15382;47.578;8.086;2022-08-19T21:00:36;20.23;;;14.50;;
28068;SDS011;15382;47.578;8.086;2022-08-19T21:10:38;24.42;;;16.88;;
28068;SDS011;15382;47.578;8.086;2022-08-19T21:20:39;21.00;;;14.30;;
28068;SDS011;15382;47.578;8.086;2022-08-19T21:30:40;25.65;;;16.35;;
28068;SDS011;15382;47.578;8.086;2022-08-19T21:40:42;26.63;;;14.95;;
28068;SDS011;15382;47.578;8.086;2022-08-19T21:50:43;21.73;;;14.67;;
28068;SDS011;15382;47.578;8.086;2022-08-19T22:00:44;22.10;;;14.90;;
28068;SDS011;15382;47.578;8.086;2022-08-19T22:20:48;21.53;;;14.33;;
28068;SDS011;15382;47.578;8.086;2022-08-19T22:30:49;22.97;;;15.57;;
28068;SDS011;15382;47.578;8.086;2022-08-19T22:40:50;26.00;;;16.50;;
28068;SDS011;15382;47.578;8.086;2022-08-19T22:50:52;27.20;;;17.60;;
28068;SDS011;15382;47.578;8.086;2022-08-19T23:01:13;30.52;;;18.65;;
28068;SDS011;15382;47.578;8.086;2022-08-19T23:11:15;50.70;;;25.33;;
28068;SDS011;15382;47.578;8.086;2022-08-19T23:21:15;53.67;;;26.43;;
28068;SDS011;15382;47.578;8.086;2022-08-19T23:31:16;61.23;;;29.33;;
28068;SDS011;15382;47.578;8.086;2022-08-19T23:41:18;38.03;;;22.70;;
28068;SDS011;15382;47.578;8.086;2022-08-19T23:51:20;44.00;;;22.45;;
